createdAt,value
2022-12-08T00:01:23.632Z,98996.28
2022-12-08T00:03:52.300Z,99005.75
2022-12-08T00:06:45.631Z,99012.41
2022-12-08T00:09:23.269Z,99014.84
2022-12-08T00:11:55.802Z,99012.00
2022-12-08T00:14:34.659Z,99018.22
2022-12-08T00:17:03.553Z,99014.66
2022-12-08T00:19:31.484Z,99019.19
2022-12-08T00:21:59.085Z,99019.38
2022-12-08T00:24:32.419Z,99017.91
2022-12-08T00:26:59.758Z,99018.84
2022-12-08T00:29:27.658Z,99025.81
2022-12-08T00:31:55.106Z,99022.44
2022-12-08T00:34:22.917Z,99022.97
2022-12-08T00:36:50.233Z,99010.81
2022-12-08T00:39:18.440Z,99024.34
2022-12-08T00:42:04.408Z,99026.34
2022-12-08T00:44:31.975Z,99023.91
2022-12-08T00:46:59.184Z,99030.69
2022-12-08T00:49:26.871Z,99028.16
2022-12-08T00:51:54.136Z,99035.44
2022-12-08T00:54:23.147Z,99041.63
2022-12-08T00:56:50.818Z,99047.97
2022-12-08T00:59:19.391Z,99055.91
2022-12-08T01:01:47.858Z,99049.16
2022-12-08T01:04:17.672Z,99057.50
2022-12-08T01:06:45.650Z,99069.78
2022-12-08T01:09:14.461Z,99064.84
2022-12-08T01:11:42.410Z,99055.34
2022-12-08T01:14:10.068Z,99065.13
2022-12-08T01:16:38.310Z,99082.69
2022-12-08T01:19:05.840Z,99077.00
2022-12-08T01:21:33.251Z,99079.84
2022-12-08T01:24:01.433Z,99073.56
2022-12-08T01:26:28.808Z,99082.66
2022-12-08T01:28:56.420Z,99089.75
2022-12-08T01:31:24.374Z,99080.66
2022-12-08T01:33:52.075Z,99088.47
2022-12-08T01:36:25.105Z,99089.34
2022-12-08T01:38:54.209Z,99092.63
2022-12-08T01:41:24.441Z,99077.91
2022-12-08T01:44:04.725Z,99095.50
2022-12-08T01:46:33.626Z,99092.69
2022-12-08T01:49:04.300Z,99087.81
2022-12-08T01:51:35.816Z,99090.00
2022-12-08T01:54:05.782Z,99098.38
2022-12-08T01:56:41.174Z,99101.75
2022-12-08T01:59:11.817Z,99102.28
2022-12-08T02:01:39.368Z,99105.25
2022-12-08T02:04:07.150Z,99100.44
2022-12-08T02:06:39.814Z,99110.44
2022-12-08T02:09:08.385Z,99102.97
2022-12-08T02:11:35.746Z,99094.19
2022-12-08T02:14:08.393Z,99106.16
2022-12-08T02:16:49.337Z,99105.41
2022-12-08T02:19:53.844Z,99106.88
2022-12-08T02:22:40.556Z,99112.84
2022-12-08T02:25:20.650Z,99114.06
2022-12-08T02:28:05.903Z,99116.78
2022-12-08T02:30:45.506Z,99109.09
2022-12-08T02:33:22.029Z,99115.34
2022-12-08T02:35:54.228Z,99112.47
2022-12-08T02:38:30.408Z,99118.69
2022-12-08T02:41:17.058Z,99105.28
2022-12-08T02:43:48.779Z,99109.84
2022-12-08T02:46:21.831Z,99107.72
2022-12-08T02:48:52.044Z,99112.03
2022-12-08T02:51:20.021Z,99109.94
2022-12-08T02:53:48.696Z,99129.91
2022-12-08T02:56:25.295Z,99130.03
2022-12-08T02:59:01.535Z,99130.97
2022-12-08T03:02:06.933Z,99132.44
2022-12-08T03:05:11.643Z,99130.13
2022-12-08T03:07:44.922Z,99131.50
2022-12-08T03:10:30.293Z,99123.75
2022-12-08T03:13:13.667Z,99124.50
2022-12-08T03:15:43.121Z,99128.44
2022-12-08T03:18:15.031Z,99111.41
2022-12-08T03:20:43.819Z,99111.53
2022-12-08T03:23:14.639Z,99127.69
2022-12-08T03:26:02.025Z,99121.22
2022-12-08T03:28:29.712Z,99123.94
2022-12-08T03:31:02.807Z,99128.94
2022-12-08T03:33:40.492Z,99138.06
2022-12-08T03:36:09.647Z,99138.63
2022-12-08T03:38:43.320Z,99137.88
2022-12-08T03:41:20.719Z,99133.59
2022-12-08T03:43:58.430Z,99133.78
2022-12-08T03:48:55.122Z,99133.50
2022-12-08T03:51:22.793Z,99146.56
2022-12-08T03:53:50.988Z,99153.09
2022-12-08T03:56:28.135Z,99140.06
2022-12-08T03:58:56.072Z,99140.78
2022-12-08T04:01:23.673Z,99147.97
2022-12-08T04:03:51.621Z,99133.66
2022-12-08T04:06:19.412Z,99141.41
2022-12-08T04:08:47.057Z,99147.03
2022-12-08T04:11:14.803Z,99137.66
2022-12-08T04:13:43.993Z,99146.97
2022-12-08T04:16:22.716Z,99142.53
2022-12-08T04:18:50.834Z,99148.84
2022-12-08T04:21:18.390Z,99145.31
2022-12-08T04:23:46.864Z,99146.00
2022-12-08T04:26:15.009Z,99149.34
2022-12-08T04:28:42.851Z,99143.84
2022-12-08T04:31:10.794Z,99147.88
2022-12-08T04:33:38.417Z,99153.97
2022-12-08T04:36:06.561Z,99148.38
2022-12-08T04:38:34.805Z,99148.84
2022-12-08T04:41:02.221Z,99162.25
2022-12-08T04:43:30.219Z,99161.94
2022-12-08T04:45:57.435Z,99155.72
2022-12-08T04:48:26.049Z,99164.47
2022-12-08T04:50:53.336Z,99165.34
2022-12-08T04:53:21.388Z,99164.91
2022-12-08T04:55:49.739Z,99174.59
2022-12-08T04:58:19.173Z,99168.75
2022-12-08T05:00:47.466Z,99165.53
2022-12-08T05:03:15.677Z,99168.28
2022-12-08T05:05:43.923Z,99179.03
2022-12-08T05:08:11.704Z,99171.66
2022-12-08T05:10:39.534Z,99175.34
2022-12-08T05:13:07.144Z,99179.03
2022-12-08T05:15:34.435Z,99183.84
2022-12-08T05:18:02.014Z,99185.34
2022-12-08T05:20:29.237Z,99188.53
2022-12-08T05:22:56.932Z,99181.34
2022-12-08T05:25:24.354Z,99187.19
2022-12-08T05:27:55.270Z,99194.66
2022-12-08T05:30:29.669Z,99196.78
2022-12-08T05:32:57.335Z,99199.13
2022-12-08T05:35:24.602Z,99195.72
2022-12-08T05:37:54.022Z,99195.22
2022-12-08T05:40:21.368Z,99194.47
2022-12-08T05:42:48.841Z,99178.53
2022-12-08T05:45:16.126Z,99198.09
2022-12-08T05:47:43.685Z,99202.31
2022-12-08T05:50:11.201Z,99194.56
2022-12-08T05:52:38.794Z,99186.81
2022-12-08T05:55:06.797Z,99201.44
2022-12-08T05:57:34.301Z,99208.22
2022-12-08T06:00:01.947Z,99215.19
2022-12-08T06:02:39.820Z,99226.44
2022-12-08T06:05:07.563Z,99222.56
2022-12-08T06:07:35.044Z,99218.97
2022-12-08T06:10:03.049Z,99224.41
2022-12-08T06:12:30.968Z,99225.84
2022-12-08T06:14:58.212Z,99229.69
2022-12-08T06:17:25.770Z,99235.84
2022-12-08T06:19:53.187Z,99236.06
2022-12-08T06:22:20.856Z,99253.16
2022-12-08T06:24:48.058Z,99243.84
2022-12-08T06:27:15.792Z,99247.97
2022-12-08T06:29:43.066Z,99261.38
2022-12-08T06:32:11.840Z,99242.13
2022-12-08T06:34:39.050Z,99267.31
2022-12-08T06:37:06.657Z,99273.81
2022-12-08T06:39:33.839Z,99262.38
2022-12-08T06:42:19.909Z,99277.22
2022-12-08T06:44:47.847Z,99279.38
2022-12-08T06:47:15.306Z,99274.47
2022-12-08T06:49:42.600Z,99283.00
2022-12-08T06:52:10.196Z,99286.19
2022-12-08T06:54:37.728Z,99285.75
2022-12-08T06:57:05.197Z,99271.63
2022-12-08T06:59:32.706Z,99273.03
2022-12-08T07:02:00.289Z,99273.19
2022-12-08T07:04:27.542Z,99281.16
2022-12-08T07:06:55.055Z,99281.50
2022-12-08T07:09:22.422Z,99286.75
2022-12-08T07:11:50.152Z,99295.31
2022-12-08T07:14:17.577Z,99301.44
2022-12-08T07:16:45.140Z,99309.31
2022-12-08T07:19:12.620Z,99310.19
2022-12-08T07:21:40.774Z,99307.94
2022-12-08T07:24:08.166Z,99319.69
2022-12-08T07:26:36.079Z,99319.53
2022-12-08T07:29:03.936Z,99317.41
2022-12-08T07:31:31.592Z,99316.47
2022-12-08T07:33:58.849Z,99324.63
2022-12-08T07:36:26.776Z,99315.06
2022-12-08T07:38:54.334Z,99318.22
2022-12-08T07:41:24.834Z,99320.28
2022-12-08T07:43:53.842Z,99321.22
2022-12-08T07:46:23.750Z,99324.84
2022-12-08T07:48:52.616Z,99325.38
2022-12-08T07:51:20.501Z,99331.69
2022-12-08T07:53:53.814Z,99332.25
2022-12-08T07:56:22.587Z,99322.31
2022-12-08T07:58:49.974Z,99338.94
2022-12-08T08:01:30.397Z,99341.53
2022-12-08T08:04:01.850Z,99345.31
2022-12-08T08:06:29.330Z,99348.66
2022-12-08T08:08:57.357Z,99350.31
2022-12-08T08:11:25.092Z,99344.22
2022-12-08T08:13:52.840Z,99330.31
2022-12-08T08:16:21.257Z,99347.69
2022-12-08T08:18:52.223Z,99347.09
2022-12-08T08:24:08.523Z,99347.63
2022-12-08T08:26:37.154Z,99351.56
2022-12-08T08:29:04.361Z,99341.06
2022-12-08T08:31:31.957Z,99346.78
2022-12-08T08:34:05.097Z,99344.75
2022-12-08T08:36:34.462Z,99350.31
2022-12-08T08:39:02.131Z,99356.66
2022-12-08T08:41:29.733Z,99357.47
2022-12-08T08:43:57.019Z,99376.63
2022-12-08T08:46:24.651Z,99382.69
2022-12-08T08:48:52.075Z,99391.84
2022-12-08T08:51:19.752Z,99395.16
2022-12-08T08:53:47.410Z,99397.56
2022-12-08T08:56:19.345Z,99405.88
2022-12-08T08:58:48.806Z,99406.06
2022-12-08T09:01:19.979Z,99421.91
2022-12-08T09:03:49.074Z,99414.72
2022-12-08T09:06:17.606Z,99408.63
2022-12-08T09:08:45.836Z,99415.84
2022-12-08T09:11:13.910Z,99411.94
2022-12-08T09:13:41.732Z,99402.25
2022-12-08T09:16:11.549Z,99409.44
2022-12-08T09:18:38.936Z,99398.69
2022-12-08T09:21:08.730Z,99406.59
2022-12-08T09:23:39.472Z,99407.91
2022-12-08T09:26:07.892Z,99402.28
2022-12-08T09:28:35.521Z,99393.63
2022-12-08T09:31:03.840Z,99387.06
2022-12-08T09:33:31.799Z,99384.03
2022-12-08T09:36:03.949Z,99385.94
2022-12-08T09:38:31.121Z,99383.31
2022-12-08T09:41:00.249Z,99379.19
2022-12-08T09:43:51.701Z,99381.22
2022-12-08T09:46:20.426Z,99377.63
2022-12-08T09:48:56.129Z,99386.09
2022-12-08T09:51:32.032Z,99377.63
2022-12-08T09:54:12.718Z,99366.09
2022-12-08T09:56:40.634Z,99376.94
2022-12-08T09:59:29.331Z,99365.78
2022-12-08T10:01:57.094Z,99371.63
2022-12-08T10:04:31.626Z,99367.50
2022-12-08T10:07:20.998Z,99369.06
2022-12-08T10:10:39.451Z,99367.47
2022-12-08T10:13:21.941Z,99367.59
2022-12-08T10:16:26.548Z,99376.75
2022-12-08T10:19:20.603Z,99368.59
2022-12-08T10:21:48.718Z,99357.91
2022-12-08T10:24:26.104Z,99359.56
2022-12-08T10:26:55.439Z,99354.69
2022-12-08T10:29:22.997Z,99369.28
2022-12-08T10:31:50.232Z,99358.28
2022-12-08T10:34:23.161Z,99357.78
2022-12-08T10:36:53.832Z,99352.81
2022-12-08T10:39:39.811Z,99351.47
2022-12-08T10:42:16.001Z,99345.81
2022-12-08T10:44:54.416Z,99352.72
2022-12-08T10:47:24.611Z,99344.75
2022-12-08T10:50:23.057Z,99344.88
2022-12-08T10:53:10.839Z,99341.94
2022-12-08T10:56:06.383Z,99329.53
2022-12-08T10:58:36.302Z,99343.38
2022-12-08T11:01:14.927Z,99350.03
2022-12-08T11:03:49.995Z,99347.06
2022-12-08T11:06:29.492Z,99348.47
2022-12-08T11:08:59.906Z,99342.81
2022-12-08T11:11:57.863Z,99355.56
2022-12-08T11:14:33.149Z,99349.00
2022-12-08T11:17:12.299Z,99340.97
2022-12-08T11:24:42.716Z,99331.47
2022-12-08T11:27:10.392Z,99326.06
2022-12-08T11:29:37.606Z,99327.19
2022-12-08T11:32:14.840Z,99332.22
2022-12-08T11:34:57.499Z,99317.16
2022-12-08T11:37:41.445Z,99328.38
2022-12-08T11:40:22.150Z,99315.13
2022-12-08T11:43:12.870Z,99311.50
2022-12-08T11:45:41.890Z,99314.25
2022-12-08T11:48:25.657Z,99308.09
2022-12-08T11:51:02.642Z,99313.13
2022-12-08T11:53:41.937Z,99315.13
2022-12-08T11:56:43.906Z,99315.94
2022-12-08T11:59:20.465Z,99318.41
2022-12-08T12:01:48.628Z,99307.22
2022-12-08T12:04:28.792Z,99307.31
2022-12-08T12:07:10.789Z,99308.09
2022-12-08T12:10:07.374Z,99309.47
2022-12-08T12:12:39.851Z,99308.28
2022-12-08T12:15:26.202Z,99310.06
2022-12-08T12:18:16.494Z,99302.38
2022-12-08T12:20:59.238Z,99306.63
2022-12-08T12:23:40.787Z,99302.19
2022-12-08T12:26:18.326Z,99288.91
2022-12-08T12:29:00.808Z,99293.69
2022-12-08T12:31:30.500Z,99293.59
2022-12-08T12:34:11.717Z,99284.31
2022-12-08T12:36:49.668Z,99286.19
2022-12-08T12:39:20.138Z,99272.69
2022-12-08T12:41:52.899Z,99281.09
2022-12-08T12:44:29.239Z,99276.97
2022-12-08T12:46:59.800Z,99271.81
2022-12-08T12:49:39.735Z,99281.19
2022-12-08T12:52:10.295Z,99276.97
2022-12-08T12:55:05.261Z,99273.00
2022-12-08T12:57:40.665Z,99278.06
2022-12-08T13:00:18.028Z,99274.50
2022-12-08T13:02:49.300Z,99265.63
2022-12-08T13:05:19.531Z,99265.31
2022-12-08T13:08:02.627Z,99262.28
2022-12-08T13:10:33.354Z,99257.81
2022-12-08T13:13:07.090Z,99259.94
2022-12-08T13:15:37.904Z,99256.31
2022-12-08T13:18:07.781Z,99258.28
2022-12-08T13:20:46.160Z,99258.28
2022-12-08T13:23:28.519Z,99269.75
2022-12-08T13:26:20.765Z,99274.47
2022-12-08T13:29:03.958Z,99278.28
2022-12-08T13:31:41.665Z,99277.69
2022-12-08T13:34:29.096Z,99273.84
2022-12-08T13:37:11.544Z,99281.38
2022-12-08T13:39:39.178Z,99275.06
2022-12-08T13:42:12.520Z,99283.56
2022-12-08T13:49:52.738Z,99273.09
2022-12-08T13:57:32.851Z,99282.13
2022-12-08T14:00:03.757Z,99279.47
2022-12-08T14:02:47.674Z,99278.06
2022-12-08T14:05:20.621Z,99274.59
2022-12-08T14:08:02.720Z,99251.50
2022-12-08T14:10:32.235Z,99273.19
2022-12-08T14:13:03.434Z,99274.69
2022-12-08T14:15:38.268Z,99267.91
2022-12-08T14:18:21.521Z,99265.34
2022-12-08T14:21:20.423Z,99255.81
2022-12-08T14:23:48.218Z,99261.88
2022-12-08T14:26:15.604Z,99259.59
2022-12-08T14:28:45.144Z,99260.66
2022-12-08T14:31:14.732Z,99250.38
2022-12-08T14:33:43.198Z,99245.28
2022-12-08T14:36:12.675Z,99245.09
2022-12-08T14:38:40.319Z,99247.25
2022-12-08T14:41:11.756Z,99245.69
2022-12-08T14:43:41.088Z,99238.72
2022-12-08T14:46:23.058Z,99226.94
2022-12-08T14:48:50.856Z,99227.47
2022-12-08T14:51:23.953Z,99237.03
2022-12-08T14:54:08.821Z,99243.03
2022-12-08T14:56:52.378Z,99234.84
2022-12-08T14:59:32.246Z,99240.97
2022-12-08T15:02:24.527Z,99247.56
2022-12-08T15:04:58.082Z,99253.09
2022-12-08T15:07:30.008Z,99245.75
2022-12-08T15:10:15.861Z,99253.00
2022-12-08T15:13:02.457Z,99233.31
2022-12-08T15:15:31.518Z,99238.22
2022-12-08T15:18:12.748Z,99235.78
2022-12-08T15:20:48.404Z,99243.50
2022-12-08T15:23:26.760Z,99241.44
2022-12-08T15:25:55.682Z,99236.03
2022-12-08T15:28:29.725Z,99224.38
2022-12-08T15:30:58.991Z,99231.06
2022-12-08T15:33:27.107Z,99221.19
2022-12-08T15:35:54.772Z,99206.28
2022-12-08T15:38:26.242Z,99220.63
2022-12-08T15:40:54.610Z,99221.09
2022-12-08T15:43:23.077Z,99204.25
2022-12-08T15:45:59.019Z,99212.91
2022-12-08T15:48:29.332Z,99209.81
2022-12-08T15:50:57.388Z,99214.03
2022-12-08T15:53:24.609Z,99217.72
2022-12-08T15:58:56.614Z,99210.56
2022-12-08T16:01:25.966Z,99219.03
2022-12-08T16:09:38.835Z,99204.91
2022-12-08T16:13:13.446Z,99202.91
2022-12-08T16:15:49.942Z,99200.78
2022-12-08T16:18:15.851Z,99198.31
2022-12-08T16:21:08.045Z,99209.53
2022-12-08T16:23:42.948Z,99198.22
2022-12-08T16:26:44.288Z,99209.44
2022-12-08T16:29:05.537Z,99198.69
2022-12-08T16:31:33.504Z,99195.41
2022-12-08T16:34:01.255Z,99190.41
2022-12-08T16:36:28.600Z,99192.94
2022-12-08T16:38:56.131Z,99188.13
2022-12-08T16:41:41.860Z,99184.44
2022-12-08T16:44:09.461Z,99190.88
2022-12-08T16:46:37.223Z,99198.19
2022-12-08T16:49:07.976Z,99192.91
2022-12-08T16:51:35.442Z,99194.03
2022-12-08T16:54:02.980Z,99193.19
2022-12-08T16:56:32.972Z,99192.72
2022-12-08T16:59:02.376Z,99192.63
2022-12-08T17:01:30.275Z,99181.22
2022-12-08T17:06:45.440Z,99177.06
2022-12-08T17:09:13.108Z,99183.97
2022-12-08T17:11:43.336Z,99192.41
2022-12-08T17:14:14.930Z,99180.06
2022-12-08T17:16:43.014Z,99184.28
2022-12-08T17:19:13.343Z,99181.44
2022-12-08T17:21:40.569Z,99200.91
2022-12-08T17:24:08.193Z,99199.94
2022-12-08T17:26:35.652Z,99203.25
2022-12-08T17:29:04.361Z,99200.19
2022-12-08T17:31:32.689Z,99193.22
2022-12-08T17:34:05.855Z,99195.47
2022-12-08T17:36:33.154Z,99194.53
2022-12-08T17:39:01.266Z,99197.44
2022-12-08T17:41:29.413Z,99200.66
2022-12-08T17:43:57.296Z,99187.34
2022-12-08T17:46:24.934Z,99195.50
2022-12-08T17:48:52.838Z,99196.94
2022-12-08T17:51:20.235Z,99185.94
2022-12-08T17:53:47.882Z,99187.31
2022-12-08T17:56:21.713Z,99189.53
2022-12-08T17:58:54.190Z,99200.91
2022-12-08T18:01:23.186Z,99207.53
2022-12-08T18:03:51.131Z,99207.06
2022-12-08T18:06:18.704Z,99208.97
2022-12-08T18:08:46.860Z,99214.38
2022-12-08T18:11:18.016Z,99210.59
2022-12-08T18:13:47.185Z,99222.75
2022-12-08T18:16:15.611Z,99224.00
2022-12-08T18:18:43.335Z,99221.75
2022-12-08T18:21:12.520Z,99215.84
2022-12-08T18:23:42.434Z,99219.75
2022-12-08T18:26:13.012Z,99216.47
2022-12-08T18:28:41.085Z,99219.56
2022-12-08T18:31:13.858Z,99229.28
2022-12-08T18:33:43.633Z,99224.22
2022-12-08T18:36:15.011Z,99226.09
2022-12-08T18:38:42.852Z,99231.78
2022-12-08T18:41:13.147Z,99220.31
2022-12-08T18:43:40.895Z,99229.00
2022-12-08T18:46:10.698Z,99240.69
2022-12-08T18:48:41.994Z,99235.59
2022-12-08T18:51:14.683Z,99233.84
2022-12-08T18:53:42.717Z,99228.03
2022-12-08T18:56:21.337Z,99228.69
2022-12-08T18:58:48.915Z,99237.97
2022-12-08T19:01:16.536Z,99232.63
2022-12-08T19:03:58.503Z,99231.72
2022-12-08T19:06:31.884Z,99211.19
2022-12-08T19:08:59.496Z,99231.38
2022-12-08T19:11:28.793Z,99231.56
2022-12-08T19:13:57.134Z,99231.78
2022-12-08T19:16:24.499Z,99230.94
2022-12-08T19:18:52.113Z,99236.41
2022-12-08T19:21:20.496Z,99240.00
2022-12-08T19:23:48.057Z,99234.97
2022-12-08T19:26:15.266Z,99244.78
2022-12-08T19:28:43.074Z,99249.31
2022-12-08T19:31:11.211Z,99242.66
2022-12-08T19:33:39.474Z,99252.56
2022-12-08T19:36:08.981Z,99238.72
2022-12-08T19:38:56.549Z,99251.31
2022-12-08T19:41:42.491Z,99258.03
2022-12-08T19:44:38.586Z,99248.81
2022-12-08T19:47:06.354Z,99251.75
2022-12-08T19:49:34.020Z,99263.16
2022-12-08T19:52:01.929Z,99262.38
2022-12-08T19:54:29.614Z,99259.22
2022-12-08T19:56:56.948Z,99266.78
2022-12-08T19:59:27.846Z,99265.47
2022-12-08T20:01:55.907Z,99264.66
2022-12-08T20:04:25.241Z,99257.31
2022-12-08T20:06:53.844Z,99273.06
2022-12-08T20:09:22.226Z,99280.41
2022-12-08T20:11:50.871Z,99284.94
2022-12-08T20:14:18.565Z,99272.66
2022-12-08T20:16:45.835Z,99282.00
2022-12-08T20:19:13.348Z,99278.06
2022-12-08T20:21:40.840Z,99264.88
2022-12-08T20:24:08.590Z,99274.50
2022-12-08T20:26:35.900Z,99278.56
2022-12-08T20:29:03.710Z,99279.38
2022-12-08T20:31:32.128Z,99287.09
2022-12-08T20:34:00.247Z,99287.69
2022-12-08T20:36:28.049Z,99287.84
2022-12-08T20:38:56.209Z,99284.38
2022-12-08T20:41:23.834Z,99295.22
2022-12-08T20:43:52.433Z,99293.34
2022-12-08T20:46:21.210Z,99299.00
2022-12-08T20:48:49.155Z,99299.25
2022-12-08T20:51:19.736Z,99301.72
2022-12-08T20:53:47.652Z,99302.38
2022-12-08T20:56:17.516Z,99302.94
2022-12-08T20:58:46.166Z,99306.13
2022-12-08T21:01:16.068Z,99315.03
2022-12-08T21:03:45.423Z,99320.22
2022-12-08T21:06:13.614Z,99326.25
2022-12-08T21:08:42.871Z,99332.09
2022-12-08T21:11:10.666Z,99321.84
2022-12-08T21:13:39.048Z,99332.19
2022-12-08T21:16:09.309Z,99330.22
2022-12-08T21:18:39.621Z,99344.47
2022-12-08T21:21:11.311Z,99356.03
2022-12-08T21:23:40.516Z,99358.88
2022-12-08T21:26:19.593Z,99365.66
2022-12-08T21:28:47.594Z,99361.59
2022-12-08T21:31:17.866Z,99373.38
2022-12-08T21:33:45.882Z,99376.44
2022-12-08T21:36:16.275Z,99376.84
2022-12-08T21:38:45.063Z,99386.16
2022-12-08T21:41:42.140Z,99379.63
2022-12-08T21:44:12.255Z,99384.16
2022-12-08T21:46:39.759Z,99371.94
2022-12-08T21:49:07.830Z,99376.81
2022-12-08T21:51:41.846Z,99374.41
2022-12-08T21:54:16.680Z,99372.84
2022-12-08T21:56:48.008Z,99375.34
2022-12-08T21:59:16.708Z,99379.13
2022-12-08T22:01:44.675Z,99373.06
2022-12-08T22:04:16.077Z,99363.84
2022-12-08T22:06:43.845Z,99371.59
2022-12-08T22:09:13.610Z,99369.47
2022-12-08T22:11:42.166Z,99381.53
2022-12-08T22:14:14.340Z,99372.28
2022-12-08T22:16:43.752Z,99381.97
2022-12-08T22:19:12.521Z,99383.00
2022-12-08T22:21:40.363Z,99386.38
2022-12-08T22:24:08.632Z,99394.81
2022-12-08T22:26:36.056Z,99397.59
2022-12-08T22:29:04.199Z,99395.13
2022-12-08T22:31:31.501Z,99393.25
2022-12-08T22:33:59.709Z,99402.84
2022-12-08T22:36:28.080Z,99407.38
2022-12-08T22:38:56.793Z,99387.84
2022-12-08T22:41:24.540Z,99403.56
2022-12-08T22:43:52.415Z,99403.91
2022-12-08T22:46:23.312Z,99397.69
2022-12-08T22:48:52.996Z,99400.84
2022-12-08T22:51:20.439Z,99404.50
2022-12-08T22:53:48.645Z,99405.13
2022-12-08T22:56:18.175Z,99405.41
2022-12-08T22:58:46.563Z,99403.75
2022-12-08T23:01:40.085Z,99413.72
2022-12-08T23:04:11.334Z,99415.59
2022-12-08T23:06:41.642Z,99415.13
2022-12-08T23:09:09.268Z,99411.66
2022-12-08T23:11:36.660Z,99413.13
2022-12-08T23:14:04.378Z,99413.03
2022-12-08T23:16:32.032Z,99411.25
2022-12-08T23:18:59.713Z,99417.63
2022-12-08T23:21:27.567Z,99411.56
2022-12-08T23:23:55.151Z,99422.66
2022-12-08T23:26:25.424Z,99420.56
2022-12-08T23:28:53.190Z,99425.09
2022-12-08T23:31:20.715Z,99422.53
2022-12-08T23:33:48.917Z,99416.41
2022-12-08T23:36:18.434Z,99432.47
2022-12-08T23:38:46.846Z,99425.94
2022-12-08T23:41:16.119Z,99426.97
2022-12-08T23:43:46.774Z,99429.84
2022-12-08T23:46:15.826Z,99416.16
2022-12-08T23:48:44.217Z,99426.91
2022-12-08T23:51:12.646Z,99437.84
2022-12-08T23:53:40.651Z,99429.97
2022-12-08T23:56:12.160Z,99424.56
2022-12-08T23:58:41.087Z,99433.78
